Nearby METAR Reports

 

KBDU - Boulder Muni, Colorado, USA
Distance from station: ESE 5mi, 9km
Updated: Wed, 13-Dec-2017 6:54pm MST
Overcast
Overcast
 Wind from calm
Wind: Calm
Temperature: 45°F , 7°C
Dew Point: 14°F , -10°C
Humidity: 29%
Barometer: 30.06 inHg , 1017.9 hPa
Clouds: Overcast
Visibility: 10 miles , 16 km
Cloud details: Overcast 11000 ft
2017/12/14 01:54 KBDU 140154Z AUTO 00000KT 10SM OVC110 07/M10 A3006 RMK AO2
KLMO - Longmont/Vbrand, Colorado, USA
Distance from station: NE 11mi, 18km
Updated: Wed, 13-Dec-2017 6:55pm MST
Overcast
Overcast
 Wind from E
Wind: E 7 mph , 11 km/h
Temperature: 45°F , 7°C
Wind Chill: 41°F , 5°C
Dew Point: 14°F , -10°C
Humidity: 29%
Barometer: 30.08 inHg , 1018.6 hPa
Clouds: Overcast
Visibility: 10 miles , 16 km
Cloud details: Overcast 11000 ft
2017/12/14 01:55 KLMO 140155Z AUTO 09006KT 10SM OVC110 07/M10 A3008 RMK AO2 T00731100
 
KEIK - Erie Muni, Colorado, USA
Distance from station: ESE 15mi, 24km
Updated: Wed, 13-Dec-2017 6:54pm MST
Overcast
Overcast
 Wind from E
Wind: E 6 mph , 9 km/h
Temperature: 45°F , 7°C
Wind Chill: 42°F , 6°C
Dew Point: 10°F , -12°C
Humidity: 25%
Barometer: 30.11 inHg , 1019.6 hPa
Clouds: Overcast
Visibility: 10 miles , 16 km
Cloud details: Overcast 11000 ft
2017/12/14 01:54 KEIK 140154Z AUTO 08005KT 10SM OVC110 07/M12 A3011 RMK AO2 T00681120
KBJC - Broomfield/Jeffc, Colorado, USA
Distance from station: SE 17mi, 27km
Updated: Wed, 13-Dec-2017 6:45pm MST
Mostly cloudy
Mostly cloudy
 Wind from E
Wind: E 8 mph , 13 km/h
Temperature: 45°F , 7°C
Wind Chill: 41°F , 5°C
Dew Point: 12°F , -11°C
Humidity: 27%
Barometer: 30.06 inHg , 1017.9 hPa
Clouds: Mostly cloudy
Visibility: 30 miles , 48 km
Cloud details: Mostly cloudy 11000 ft
2017/12/14 01:45 KBJC 140145Z 08007KT 30SM BKN110 07/M11 A3006
 
KFNL - Ft Collins/Lovel, Colorado, USA
Distance from station: NNE 31mi, 50km
Updated: Wed, 13-Dec-2017 6:56pm MST
Overcast
Overcast
 Wind from NE
Wind: NE 8 mph , 13 km/h
Temperature: 45°F , 7°C
Wind Chill: 41°F , 5°C
Dew Point: 14°F , -10°C
Humidity: 29%
Barometer: 30.07 inHg , 1018.3 hPa
Clouds: Overcast
Visibility: 10 miles , 16 km
Cloud details: Overcast 11000 ft
2017/12/14 01:56 KFNL 140156Z AUTO 05007KT 10SM OVC110 07/M10 A3007 RMK AO2 SLP174 T00671100 TSNO
KDEN - Denver (dia), Colorado, USA
Distance from station: ESE 39mi, 62km
Updated: Wed, 13-Dec-2017 6:53pm MST
Overcast
Overcast
 Wind from ENE
Wind: ENE 7 mph , 11 km/h
Temperature: 39°F , 4°C
Wind Chill: 34°F , 1°C
Dew Point: 12°F , -11°C
Humidity: 33%
Barometer: 30.06 inHg , 1017.9 hPa
Clouds: Overcast
Visibility: 10 miles , 16 km
Cloud details: Overcast 10000 ft
2017/12/14 01:53 KDEN 140153Z 06006KT 10SM OVC100 04/M11 A3006 RMK AO2 SLP172 T00391111
 
KBKF - Buckley Angb/Den, Colorado, USA
Distance from station: SE 39mi, 63km
Updated: Wed, 13-Dec-2017 6:58pm MST
Overcast
Overcast
 Wind from E
Wind: E 8 mph , 13 km/h
Temperature: 39°F , 4°C
Wind Chill: 33°F , 1°C
Dew Point: 12°F , -11°C
Humidity: 33%
Barometer: 30.07 inHg , 1018.3 hPa
Clouds: Overcast
Visibility: 10 miles , 16 km
Cloud details: Overcast 10000 ft
2017/12/14 01:58 KBKF 140158Z 09007KT 10SM OVC100 04/M11 A3007 RMK AO2A SLP175 T00401112
KAPA - Denver/Arapahoe, Colorado, USA
Distance from station: SE 43mi, 69km
Updated: Wed, 13-Dec-2017 6:53pm MST
Overcast
Overcast
 Wind from ENE
Wind: ENE 7 mph , 11 km/h
Temperature: 43°F , 6°C
Wind Chill: 39°F , 4°C
Dew Point: 12°F , -11°C
Humidity: 29%
Barometer: 30.06 inHg , 1017.9 hPa
Clouds: Overcast
Visibility: 10 miles , 16 km
Cloud details: Overcast 10000 ft
2017/12/14 01:53 KAPA 140153Z 07006KT 10SM OVC100 06/M11 A3006 RMK AO2 SLP179 T00561111
 
KGXY - Greeley/Weld, Colorado, USA
Distance from station: NE 45mi, 72km
Updated: Wed, 13-Dec-2017 6:56pm MST
Overcast
Overcast
 Wind from NE
Wind: NE 6 mph , 9 km/h
Temperature: 41°F , 5°C
Wind Chill: 37°F , 3°C
Dew Point: 14°F , -10°C
Humidity: 33%
Barometer: 30.08 inHg , 1018.6 hPa
Clouds: Overcast
Visibility: 10 miles , 16 km
Cloud details: Overcast 11000 ft
2017/12/14 01:56 KGXY 140156Z AUTO 05005KT 10SM OVC110 05/M10 A3008 RMK AO2 SLP197 T00501100
KFTG - Denver F. Range, Colorado, USA
Distance from station: ESE 46mi, 73km
Updated: Wed, 13-Dec-2017 6:53pm MST
Mostly cloudy
Mostly cloudy
 Wind from ENE
Wind: ENE 6 mph , 9 km/h
Temperature: 41°F , 5°C
Wind Chill: 37°F , 3°C
Dew Point: 12°F , -11°C
Humidity: 31%
Barometer: 30.07 inHg , 1018.3 hPa
Clouds: Mostly cloudy
Visibility: 10 miles , 16 km
Cloud details: Partly cloudy 11000 ft
Mostly cloudy 15000 ft
Mostly cloudy 22000 ft
2017/12/14 01:53 KFTG 140153Z 06005KT 10SM SCT110 BKN150 BKN220 05/M11 A3007